Bronderslev, Denmark
Current Conditions -  °F | °C
As of 5:20 AM on Monday 22 Dec 2014 (Local Time) from EKYT Reporting Station
Broken Clouds Broken Clouds  
Wind Chill: 38°   Ceiling: 17000
Heat Index: 45°   Visibility: 6mi
Dew Point: 45°   Wind: 14mph
Humidity: 100%   Direction: 250°WSW
Pressure: 29.41"   Gusts: NA
Location:  57.27°N, 9.94°E
Report Text: EKYT 220420Z 25012KT 9999 FEW010 SCT014 BKN170 07/07 Q0996
Loading
Personal Weather Stations






























Interactive Weather Map New forecast layout! Learn more

10-Day Weather Forecast

Advertisements
Track Severe Weather on mobile